Time;durP1;ratioP1;P1;durP2;ratioP2;P2;SDS_P1;SDS_P2;PMS_P1;PMS_P2;Temp;Humidity;BMP_temperature;BMP_pressure;BME280_temperature;BME280_humidity;BME280_pressure;Samples;Min_cycle;Max_cycle;Signal;HPM_P1;HPM_P2
2022/07/30 08:46:15;;;;;;;4.57;2.78;;;25.00;97.00;;;;;;4154017;28;20389;-68
2022/07/30 08:48:19;;;;;;;4.72;2.70;;;25.00;97.90;;;;;;4156441;28;20036;-68
2022/07/30 08:50:20;;;;;;;5.20;2.78;;;25.10;98.50;;;;;;4152922;28;20115;-68
2022/07/30 08:52:21;;;;;;;6.22;2.75;;;25.00;96.70;;;;;;4152871;28;20065;-68
2022/07/30 08:54:22;;;;;;;7.00;2.33;;;25.00;96.10;;;;;;4155681;28;20033;-68
2022/07/30 08:56:22;;;;;;;6.18;3.30;;;25.00;96.70;;;;;;4154862;28;20500;-68
2022/07/30 08:58:35;;;;;;;3.67;2.60;;;25.00;97.90;;;;;;4155628;28;20058;-68
2022/07/30 09:00:35;;;;;;;6.68;3.30;;;25.00;97.00;;;;;;4153254;28;20041;-68
2022/07/30 09:02:36;;;;;;;5.78;3.28;;;25.00;96.10;;;;;;4153195;28;20420;-68
2022/07/30 09:04:36;;;;;;;3.70;2.58;;;24.90;96.60;;;;;;4153748;28;20053;-68
2022/07/30 09:06:39;;;;;;;5.30;2.40;;;24.90;96.50;;;;;;4154431;28;20670;-69
2022/07/30 09:08:41;;;;;;;3.05;2.30;;;24.90;95.80;;;;;;4154756;28;20095;-68
2022/07/30 09:10:43;;;;;;;8.02;2.80;;;25.00;95.90;;;;;;4153326;28;20033;-69
2022/07/30 09:12:44;;;;;;;4.10;2.55;;;25.00;95.90;;;;;;4153960;28;20033;-69
2022/07/30 09:15:21;;;;;;;5.70;2.20;;;25.10;93.80;;;;;;4153569;28;20046;-68
2022/07/30 09:17:21;;;;;;;5.97;2.50;;;25.10;93.80;;;;;;4153090;28;20042;-68
2022/07/30 09:19:23;;;;;;;4.30;2.50;;;25.10;94.60;;;;;;4154163;28;20497;-68
2022/07/30 09:21:24;;;;;;;4.07;2.20;;;25.10;95.00;;;;;;4151511;28;20045;-68
2022/07/30 09:23:25;;;;;;;3.00;2.13;;;25.00;94.70;;;;;;4155213;28;20038;-68
2022/07/30 09:25:43;;;;;;;8.55;2.30;;;25.10;95.50;;;;;;4153046;28;21151;-68
2022/07/30 09:27:48;;;;;;;2.95;1.90;;;25.10;94.70;;;;;;4146989;28;20504;-68
2022/07/30 09:29:57;;;;;;;5.35;2.17;;;25.20;94.10;;;;;;4152656;28;20036;-68
2022/07/30 09:32:04;;;;;;;2.58;1.83;;;25.20;93.20;;;;;;4153704;28;20025;-68
2022/07/30 09:34:26;;;;;;;6.20;2.78;;;25.20;93.70;;;;;;4154310;28;20053;-68
2022/07/30 09:36:30;;;;;;;5.30;2.50;;;25.20;94.60;;;;;;4155290;28;20030;-68
2022/07/30 09:38:46;;;;;;;2.13;1.90;;;25.20;93.80;;;;;;4148460;28;20971;-68
2022/07/30 09:40:51;;;;;;;3.90;2.00;;;25.20;93.70;;;;;;4160187;28;20033;-69
2022/07/30 09:43:11;;;;;;;4.50;2.10;;;25.20;92.00;;;;;;4171133;28;20622;-68
2022/07/30 09:45:14;;;;;;;4.15;1.92;;;25.10;92.80;;;;;;4172359;28;20496;-68
2022/07/30 09:47:35;;;;;;;5.82;2.30;;;25.20;94.80;;;;;;4183263;28;20034;-68
2022/07/30 09:49:36;;;;;;;3.13;1.80;;;25.20;93.30;;;;;;4181989;28;20037;-68
2022/07/30 09:51:38;;;;;;;2.67;1.90;;;25.30;94.10;;;;;;4183498;28;20109;-69
2022/07/30 09:54:00;;;;;;;7.55;2.20;;;25.40;93.70;;;;;;4182358;28;20032;-68
2022/07/30 09:56:21;;;;;;;3.28;2.00;;;25.40;92.90;;;;;;4165305;28;20151;-68
2022/07/30 09:58:21;;;;;;;3.00;1.95;;;25.50;92.50;;;;;;4172429;28;20493;-68
2022/07/30 10:00:25;;;;;;;6.70;2.60;;;25.50;93.10;;;;;;4170737;28;20033;-68
2022/07/30 10:02:32;;;;;;;7.18;2.20;;;25.40;92.00;;;;;;4173136;28;20036;-68
2022/07/30 10:04:33;;;;;;;3.17;1.92;;;25.50;92.40;;;;;;4165596;28;20407;-68
2022/07/30 10:06:35;;;;;;;4.13;2.00;;;25.40;90.50;;;;;;4169680;28;20029;-68
2022/07/30 10:08:51;;;;;;;5.07;2.13;;;25.50;91.10;;;;;;4177196;28;20029;-68
2022/07/30 10:10:52;;;;;;;6.95;3.30;;;25.50;91.40;;;;;;4176206;28;20044;-68
2022/07/30 10:12:58;;;;;;;3.15;2.00;;;25.40;92.30;;;;;;4179109;28;20026;-68
2022/07/30 10:15:01;;;;;;;6.45;2.75;;;25.40;91.30;;;;;;4177135;28;20029;-68
2022/07/30 10:17:03;;;;;;;7.90;2.78;;;25.40;94.30;;;;;;4176047;28;20049;-69
2022/07/30 10:19:04;;;;;;;5.68;2.40;;;25.40;94.40;;;;;;4171377;28;20029;-69
2022/07/30 10:21:05;;;;;;;4.80;2.08;;;25.40;93.60;;;;;;4177062;28;20511;-69
2022/07/30 10:23:07;;;;;;;3.40;2.00;;;25.50;91.60;;;;;;4178079;28;20045;-69
2022/07/30 10:25:08;;;;;;;5.07;2.33;;;25.60;91.90;;;;;;4178280;28;20029;-68
2022/07/30 10:27:09;;;;;;;3.05;1.70;;;25.60;90.80;;;;;;4178455;28;20029;-68
2022/07/30 10:29:10;;;;;;;4.07;2.22;;;25.60;91.30;;;;;;4170209;28;20039;-68
2022/07/30 10:31:13;;;;;;;3.30;2.05;;;25.60;91.20;;;;;;4178074;28;20033;-68
2022/07/30 10:33:14;;;;;;;10.73;3.30;;;25.60;91.00;;;;;;4183413;28;20036;-69
2022/07/30 10:35:14;;;;;;;17.90;3.92;;;25.70;93.20;;;;;;4173190;28;20029;-68
2022/07/30 10:37:15;;;;;;;9.88;3.58;;;25.70;92.10;;;;;;4178577;28;20021;-68
2022/07/30 10:39:24;;;;;;;8.18;2.88;;;25.70;91.00;;;;;;4169647;28;20139;-69
2022/07/30 10:41:35;;;;;;;4.47;2.50;;;25.70;90.30;;;;;;4174598;28;20045;-68
2022/07/30 10:44:07;;;;;;;8.73;3.25;;;25.60;92.20;;;;;;4175679;28;20040;-69
2022/07/30 10:46:15;;;;;;;4.32;2.40;;;25.60;90.70;;;;;;4169792;28;20453;-68
2022/07/30 10:48:18;;;;;;;4.90;2.45;;;25.70;89.10;;;;;;4171179;28;20483;-69
2022/07/30 10:50:25;;;;;;;2.97;1.98;;;25.60;85.70;;;;;;4157129;28;20036;-69
2022/07/30 10:52:46;;;;;;;2.42;1.88;;;25.70;87.50;;;;;;4177624;28;20052;-69
2022/07/30 10:54:52;;;;;;;4.95;2.22;;;25.70;86.60;;;;;;4181586;28;20503;-69
2022/07/30 10:57:12;;;;;;;4.15;1.98;;;25.70;84.20;;;;;;4174848;28;20029;-68
2022/07/30 10:59:13;;;;;;;6.10;2.40;;;25.80;85.00;;;;;;4175122;28;20056;-68
2022/07/30 11:01:13;;;;;;;4.05;1.98;;;25.80;86.30;;;;;;4176361;28;20119;-69
2022/07/30 11:03:33;;;;;;;3.55;2.03;;;25.80;84.10;;;;;;4177054;28;20056;-68
2022/07/30 11:05:34;;;;;;;3.78;2.00;;;25.80;82.70;;;;;;4180004;28;20056;-68
2022/07/30 11:07:35;;;;;;;2.15;1.42;;;25.80;80.40;;;;;;4175972;28;20048;-69
2022/07/30 11:09:41;;;;;;;5.03;2.00;;;25.90;85.40;;;;;;4176525;28;20033;-68
2022/07/30 11:11:44;;;;;;;1.70;1.52;;;25.90;84.00;;;;;;4182868;28;20025;-69
2022/07/30 11:13:54;;;;;;;3.20;2.00;;;25.90;80.50;;;;;;4177663;28;20087;-68
2022/07/30 11:16:00;;;;;;;3.80;1.50;;;26.00;88.00;;;;;;4184785;28;20033;-68
2022/07/30 11:18:07;;;;;;;4.93;1.48;;;26.10;82.70;;;;;;4181538;28;20025;-68
2022/07/30 11:20:09;;;;;;;3.67;1.90;;;26.10;83.00;;;;;;4174877;28;20049;-69
2022/07/30 11:22:27;;;;;;;5.68;1.98;;;26.20;81.50;;;;;;4178416;28;20035;-69
2022/07/30 11:24:47;;;;;;;2.60;1.90;;;26.20;82.10;;;;;;4174870;28;20029;-68
2022/07/30 11:26:49;;;;;;;4.50;1.70;;;26.20;82.80;;;;;;4171907;28;20037;-69
2022/07/30 11:28:50;;;;;;;;;;;26.30;81.30;;;;;;4173230;28;20029;-68
2022/07/30 11:30:52;;;;;;;3.00;1.70;;;26.30;82.30;;;;;;4174475;28;20012;-69
2022/07/30 11:33:16;;;;;;;2.47;1.60;;;26.40;81.50;;;;;;4177569;28;20597;-69
2022/07/30 11:35:27;;;;;;;3.92;1.70;;;26.30;79.40;;;;;;4171330;28;20025;-69
2022/07/30 11:37:28;;;;;;;3.40;1.95;;;26.40;81.70;;;;;;4165737;28;20029;-69
2022/07/30 11:39:54;;;;;;;1.63;1.50;;;26.30;75.80;;;;;;4158943;28;20045;-69
2022/07/30 11:42:28;;;;;;;2.38;1.80;;;26.40;80.20;;;;;;4170770;28;20037;-69
2022/07/30 11:44:29;;;;;;;3.55;1.85;;;26.40;81.10;;;;;;4170029;28;20025;-69
2022/07/30 11:46:29;;;;;;;2.42;1.50;;;26.50;80.20;;;;;;4175522;28;20039;-69
2022/07/30 11:48:30;;;;;;;3.72;1.88;;;26.50;80.60;;;;;;4174498;28;20033;-69
2022/07/30 11:50:33;;;;;;;4.47;1.90;;;26.50;80.30;;;;;;4173977;28;20036;-69
2022/07/30 11:52:34;;;;;;;4.65;1.80;;;26.50;81.20;;;;;;4173162;28;20110;-69
2022/07/30 11:54:52;;;;;;;4.93;1.77;;;26.60;79.60;;;;;;4177463;28;20033;-69
2022/07/30 11:56:58;;;;;;;3.97;1.60;;;26.60;80.80;;;;;;4175310;28;20039;-69
2022/07/30 11:59:06;;;;;;;3.63;1.88;;;26.60;83.20;;;;;;4161966;28;20486;-69
2022/07/30 12:01:15;;;;;;;3.42;1.85;;;26.60;80.80;;;;;;4172350;28;20025;-68
2022/07/30 12:03:18;;;;;;;3.15;1.48;;;26.60;82.40;;;;;;4174359;28;20029;-69
2022/07/30 12:05:24;;;;;;;3.65;2.03;;;26.60;82.20;;;;;;4176681;28;20032;-69
2022/07/30 12:07:25;;;;;;;4.22;1.83;;;26.60;84.50;;;;;;4173993;28;20025;-68
2022/07/30 12:09:29;;;;;;;4.20;1.70;;;26.70;86.80;;;;;;4173917;28;20120;-69
2022/07/30 12:11:34;;;;;;;3.00;1.80;;;26.60;84.10;;;;;;4172725;28;20116;-69
2022/07/30 12:13:35;;;;;;;4.28;1.73;;;26.70;84.60;;;;;;4171899;28;20083;-69
2022/07/30 12:15:41;;;;;;;8.25;2.22;;;26.70;80.60;;;;;;4159214;28;20025;-68
2022/07/30 12:17:43;;;;;;;2.47;1.40;;;26.70;81.90;;;;;;4176887;28;20384;-69
2022/07/30 12:19:45;;;;;;;3.47;1.60;;;26.70;79.40;;;;;;4169152;28;20060;-69
2022/07/30 12:21:46;;;;;;;4.80;1.57;;;26.70;82.30;;;;;;4176299;28;20021;-69
2022/07/30 12:24:06;;;;;;;2.85;1.08;;;26.70;81.80;;;;;;4177388;28;20055;-69
2022/07/30 12:26:07;;;;;;;2.85;1.48;;;26.70;81.40;;;;;;4173708;28;20151;-69
2022/07/30 12:28:09;;;;;;;2.45;1.52;;;26.70;81.10;;;;;;4176207;28;20116;-69
2022/07/30 12:30:10;;;;;;;3.42;1.50;;;26.70;83.70;;;;;;4170956;28;20056;-69
2022/07/30 12:32:11;;;;;;;2.55;1.30;;;26.80;79.90;;;;;;4174473;28;20094;-69
2022/07/30 12:34:22;;;;;;;5.38;1.45;;;26.80;82.00;;;;;;4174419;28;20025;-69
2022/07/30 12:36:32;;;;;;;4.28;1.75;;;26.90;81.30;;;;;;4174936;28;20492;-69
2022/07/30 12:38:44;;;;;;;3.05;1.92;;;26.80;79.90;;;;;;4172671;28;20584;-68
2022/07/30 12:40:57;;;;;;;3.58;1.30;;;26.80;80.80;;;;;;4174812;28;20029;-69
2022/07/30 12:42:58;;;;;;;2.35;1.30;;;26.80;79.40;;;;;;4174639;28;20021;-68
2022/07/30 12:44:58;;;;;;;2.17;0.90;;;26.70;78.50;;;;;;4174489;28;20503;-68
2022/07/30 12:46:59;;;;;;;2.88;1.20;;;26.80;81.30;;;;;;4177276;28;20036;-68
2022/07/30 12:49:02;;;;;;;2.47;1.30;;;26.80;80.50;;;;;;4176628;28;20041;-68
2022/07/30 12:51:04;;;;;;;2.85;1.73;;;26.80;80.40;;;;;;4171002;28;20033;-68
2022/07/30 12:53:05;;;;;;;;;;;26.90;79.10;;;;;;4171141;28;20384;-69
2022/07/30 12:55:11;;;;;;;2.45;1.30;;;26.90;82.50;;;;;;4151574;28;19918;-69
2022/07/30 12:57:11;;;;;;;5.57;1.67;;;27.00;81.00;;;;;;4176382;28;20432;-69
2022/07/30 12:59:32;;;;;;;1.70;1.00;;;27.00;81.80;;;;;;4162234;28;20029;-68
2022/07/30 13:01:45;;;;;;;1.30;1.20;;;27.10;77.70;;;;;;4150926;28;20042;-69
2022/07/30 13:03:46;;;;;;;3.03;1.30;;;27.20;77.00;;;;;;4171772;28;20036;-69
2022/07/30 13:05:49;;;;;;;4.45;1.17;;;27.20;77.30;;;;;;4175495;28;20041;-68
2022/07/30 13:07:58;;;;;;;1.98;1.25;;;27.10;76.00;;;;;;4173782;28;20381;-69
2022/07/30 13:10:06;;;;;;;2.83;1.05;;;27.20;80.20;;;;;;4169823;28;20033;-69
2022/07/30 13:12:11;;;;;;;2.10;1.25;;;27.20;75.80;;;;;;4173775;28;20047;-69
2022/07/30 13:14:14;;;;;;;1.40;1.10;;;27.20;77.90;;;;;;4154571;28;20034;-69
2022/07/30 13:16:15;;;;;;;2.20;0.90;;;27.20;74.90;;;;;;4178395;28;20187;-70
2022/07/30 13:18:16;;;;;;;1.63;0.90;;;27.10;77.50;;;;;;4186410;28;20691;-69
2022/07/30 13:20:17;;;;;;;3.50;1.10;;;27.10;79.00;;;;;;4173711;28;20033;-69
2022/07/30 13:22:17;;;;;;;2.03;0.70;;;27.20;76.60;;;;;;4181765;28;20494;-69
2022/07/30 13:24:19;;;;;;;2.53;0.90;;;27.20;77.50;;;;;;4173841;28;20086;-69
2022/07/30 13:26:19;;;;;;;3.55;1.15;;;27.20;79.20;;;;;;4172373;28;20505;-69
2022/07/30 13:28:20;;;;;;;0.98;0.80;;;27.20;78.00;;;;;;4172087;28;20036;-69
2022/07/30 13:30:21;;;;;;;2.30;1.20;;;27.20;76.10;;;;;;4164829;28;20056;-69
2022/07/30 13:32:21;;;;;;;0.90;0.73;;;27.10;78.20;;;;;;4156731;28;20037;-69
2022/07/30 13:34:22;;;;;;;1.05;0.70;;;27.10;78.70;;;;;;4161713;28;20061;-69
2022/07/30 13:36:22;;;;;;;1.77;0.98;;;27.20;80.80;;;;;;4162311;28;20535;-69
2022/07/30 13:38:23;;;;;;;1.70;0.77;;;27.20;79.70;;;;;;4163660;28;20033;-68
2022/07/30 13:40:24;;;;;;;3.60;1.05;;;27.20;78.30;;;;;;4157105;28;20033;-68
2022/07/30 13:42:24;;;;;;;0.70;0.63;;;27.20;80.30;;;;;;4161896;28;20475;-69
2022/07/30 13:44:25;;;;;;;3.47;0.90;;;27.30;82.00;;;;;;4161214;28;20026;-68
2022/07/30 13:46:25;;;;;;;2.88;1.13;;;27.30;78.50;;;;;;4153473;28;20033;-69
2022/07/30 13:48:26;;;;;;;1.27;0.80;;;27.30;76.60;;;;;;4160265;28;20145;-69
2022/07/30 13:50:27;;;;;;;1.27;0.73;;;27.30;75.40;;;;;;4154745;28;20064;-69
2022/07/30 13:52:28;;;;;;;3.28;1.00;;;27.40;80.80;;;;;;4157148;28;20029;-68
2022/07/30 13:54:29;;;;;;;5.07;1.30;;;27.40;79.50;;;;;;4162046;28;20549;-69
2022/07/30 13:56:29;;;;;;;1.63;1.10;;;27.40;80.50;;;;;;4162527;28;20061;-69
2022/07/30 13:58:30;;;;;;;2.33;1.13;;;27.40;82.80;;;;;;4165653;28;20037;-69
2022/07/30 14:00:32;;;;;;;1.58;0.90;;;27.40;79.40;;;;;;4170449;28;20037;-69
2022/07/30 14:02:33;;;;;;;2.10;1.00;;;27.30;80.20;;;;;;4151224;28;20080;-70
2022/07/30 14:04:34;;;;;;;1.90;1.10;;;27.30;79.80;;;;;;4155690;28;20034;-69
2022/07/30 14:06:34;;;;;;;4.43;1.20;;;27.30;79.40;;;;;;4155662;28;20038;-69
2022/07/30 14:08:35;;;;;;;2.10;1.30;;;27.40;79.30;;;;;;4170903;28;20053;-69
2022/07/30 14:10:36;;;;;;;2.58;1.25;;;27.40;79.80;;;;;;4162780;28;20547;-69
2022/07/30 14:12:38;;;;;;;7.53;1.20;;;27.50;80.80;;;;;;4165372;28;20042;-69
2022/07/30 14:14:39;;;;;;;2.67;1.20;;;27.50;78.60;;;;;;4160151;28;20061;-69
2022/07/30 14:16:39;;;;;;;1.98;1.00;;;27.60;80.30;;;;;;4162369;28;20022;-69
2022/07/30 14:18:40;;;;;;;2.13;1.40;;;27.50;77.00;;;;;;4160817;28;20029;-69
2022/07/30 14:20:41;;;;;;;3.63;1.40;;;27.50;79.20;;;;;;4161676;28;20045;-69
2022/07/30 14:22:41;;;;;;;1.40;1.10;;;27.60;78.70;;;;;;4161733;28;20080;-69
2022/07/30 14:24:42;;;;;;;1.77;0.98;;;27.60;79.20;;;;;;4161723;28;20082;-68
2022/07/30 14:26:43;;;;;;;7.03;1.17;;;27.60;77.50;;;;;;4162903;28;20037;-69
2022/07/30 14:28:43;;;;;;;13.70;1.83;;;27.60;78.90;;;;;;4161220;28;20076;-69
2022/07/30 14:30:44;;;;;;;5.35;1.27;;;27.50;78.30;;;;;;4162930;28;20053;-69
2022/07/30 14:32:45;;;;;;;2.03;0.93;;;27.60;78.20;;;;;;4161030;28;20022;-69
2022/07/30 14:34:45;;;;;;;2.35;1.00;;;27.60;80.00;;;;;;4175380;28;20143;-69
2022/07/30 14:36:46;;;;;;;3.35;1.25;;;27.70;78.70;;;;;;4177732;28;20033;-68
2022/07/30 14:38:46;;;;;;;2.58;1.00;;;27.70;77.90;;;;;;4162895;28;20044;-69
2022/07/30 14:40:48;;;;;;;2.85;1.05;;;27.80;77.10;;;;;;4174002;28;20029;-69
2022/07/30 14:42:48;;;;;;;2.30;1.20;;;27.80;74.70;;;;;;4174436;28;20510;-69
2022/07/30 14:44:49;;;;;;;1.77;1.05;;;27.80;77.30;;;;;;4162323;28;20073;-69
2022/07/30 14:46:49;;;;;;;1.70;1.05;;;27.90;80.00;;;;;;4160742;28;20029;-69
2022/07/30 14:48:50;;;;;;;5.25;1.30;;;27.90;79.60;;;;;;4160634;28;20489;-69
2022/07/30 14:50:50;;;;;;;3.22;1.23;;;27.80;76.20;;;;;;4161900;28;20053;-69
2022/07/30 14:52:51;;;;;;;6.40;1.30;;;27.80;74.60;;;;;;4169438;28;20032;-69
2022/07/30 14:54:52;;;;;;;2.80;1.05;;;27.80;77.20;;;;;;4165797;28;20037;-69
2022/07/30 14:56:53;;;;;;;3.80;1.05;;;27.80;77.30;;;;;;4161519;28;20120;-69
2022/07/30 14:58:54;;;;;;;4.88;1.02;;;27.70;80.00;;;;;;4163236;28;20514;-68
2022/07/30 15:00:54;;;;;;;1.95;1.10;;;27.70;77.90;;;;;;4158205;28;20064;-69
2022/07/30 15:02:55;;;;;;;2.70;1.00;;;27.70;77.90;;;;;;4158750;28;20026;-69
2022/07/30 15:04:55;;;;;;;2.28;1.00;;;27.70;76.60;;;;;;4157900;28;20033;-69
2022/07/30 15:06:56;;;;;;;4.90;1.25;;;27.70;77.80;;;;;;4157260;28;20512;-69
2022/07/30 15:08:57;;;;;;;1.92;0.85;;;27.60;76.30;;;;;;4159449;28;20447;-69
2022/07/30 15:10:57;;;;;;;1.65;0.88;;;27.60;77.80;;;;;;4158263;28;20030;-69
2022/07/30 15:12:58;;;;;;;3.53;0.90;;;27.50;77.00;;;;;;4160980;28;20083;-69
2022/07/30 15:14:58;;;;;;;2.50;1.00;;;27.40;77.20;;;;;;4161114;28;20036;-69
2022/07/30 15:16:59;;;;;;;2.85;1.17;;;27.40;80.00;;;;;;4159179;28;20026;-69
2022/07/30 15:18:59;;;;;;;1.88;0.88;;;27.40;76.50;;;;;;4159661;28;20029;-69
2022/07/30 15:21:00;;;;;;;1.27;0.88;;;27.40;77.20;;;;;;4170444;28;20037;-69
2022/07/30 15:23:01;;;;;;;4.00;1.38;;;27.40;78.90;;;;;;4173677;28;20102;-69
2022/07/30 15:25:02;;;;;;;2.28;0.85;;;27.40;81.00;;;;;;4174131;28;20517;-70
2022/07/30 15:27:02;;;;;;;1.85;1.15;;;27.40;79.60;;;;;;4173860;28;20082;-69
2022/07/30 15:29:03;;;;;;;3.10;0.98;;;27.30;77.50;;;;;;4147709;28;20041;-69
2022/07/30 15:31:04;;;;;;;1.15;0.70;;;27.30;80.10;;;;;;4171217;28;20051;-69
2022/07/30 15:33:04;;;;;;;1.27;1.10;;;27.40;79.50;;;;;;4175661;28;20025;-69
2022/07/30 15:35:05;;;;;;;2.60;0.80;;;27.40;80.10;;;;;;4178442;28;20037;-69
2022/07/30 15:37:06;;;;;;;1.40;0.75;;;27.40;79.40;;;;;;4173910;28;20380;-69
2022/07/30 15:39:06;;;;;;;2.53;0.90;;;27.40;80.90;;;;;;4176256;28;20049;-69
2022/07/30 15:41:07;;;;;;;2.17;1.00;;;27.30;76.70;;;;;;4162752;28;20041;-69
2022/07/30 15:43:08;;;;;;;2.72;0.95;;;27.20;77.70;;;;;;4160611;28;20033;-69
2022/07/30 15:45:09;;;;;;;0.70;0.60;;;27.20;76.60;;;;;;4160557;28;20553;-69
2022/07/30 15:47:10;;;;;;;3.60;0.95;;;27.20;79.00;;;;;;4158371;28;20091;-69
2022/07/30 15:49:10;;;;;;;1.65;0.70;;;27.10;79.30;;;;;;4157560;28;21475;-69
2022/07/30 15:51:11;;;;;;;2.67;0.93;;;27.10;78.70;;;;;;4153407;28;20034;-69
2022/07/30 15:53:12;;;;;;;4.00;1.02;;;27.10;75.10;;;;;;4155100;28;20044;-69
2022/07/30 15:55:12;;;;;;;4.82;1.13;;;27.10;78.70;;;;;;4159308;28;20852;-69
2022/07/30 15:57:13;;;;;;;1.45;0.80;;;27.10;79.90;;;;;;4171955;28;20040;-69
2022/07/30 15:59:14;;;;;;;3.30;0.93;;;27.10;78.90;;;;;;4174714;28;20033;-69
2022/07/30 16:01:14;;;;;;;1.88;0.90;;;27.00;78.90;;;;;;4172432;28;20041;-69
2022/07/30 16:03:15;;;;;;;1.90;1.02;;;27.10;79.00;;;;;;4165442;28;20700;-69
2022/07/30 16:05:16;;;;;;;2.33;1.23;;;27.00;80.80;;;;;;4173091;28;20045;-69
2022/07/30 16:07:16;;;;;;;1.20;1.10;;;27.00;79.50;;;;;;4172687;28;20109;-71
2022/07/30 16:09:18;;;;;;;2.78;0.90;;;26.90;79.70;;;;;;4173015;28;20122;-69
2022/07/30 16:11:18;;;;;;;2.20;1.08;;;27.00;79.10;;;;;;4171161;28;21597;-69
2022/07/30 16:13:19;;;;;;;1.45;0.98;;;27.00;82.20;;;;;;4175506;28;20520;-69
2022/07/30 16:15:20;;;;;;;3.67;1.00;;;27.00;83.40;;;;;;4174554;28;20120;-69
2022/07/30 16:17:20;;;;;;;1.85;0.88;;;27.00;78.20;;;;;;4174732;28;20039;-69
2022/07/30 16:19:21;;;;;;;0.93;0.80;;;26.90;78.90;;;;;;4175262;28;20029;-69
2022/07/30 16:21:22;;;;;;;1.20;0.90;;;27.00;78.20;;;;;;4174525;28;20044;-69
2022/07/30 16:23:23;;;;;;;2.75;1.08;;;27.00;80.50;;;;;;4149989;28;20044;-69
2022/07/30 16:25:24;;;;;;;0.80;0.80;;;26.90;80.90;;;;;;4176226;28;20044;-69
2022/07/30 16:27:25;;;;;;;2.70;1.27;;;26.90;78.20;;;;;;4178591;28;20025;-69
2022/07/30 16:29:25;;;;;;;1.13;0.82;;;26.90;78.90;;;;;;4185652;28;20036;-70
2022/07/30 16:31:26;;;;;;;1.83;0.90;;;26.90;80.40;;;;;;4184494;28;20033;-69
2022/07/30 16:33:27;;;;;;;1.55;0.90;;;26.90;81.80;;;;;;4177771;28;20066;-69
2022/07/30 16:35:27;;;;;;;6.03;1.25;;;26.90;79.90;;;;;;4166925;28;20399;-69
2022/07/30 16:37:28;;;;;;;1.77;0.93;;;26.90;80.20;;;;;;4165286;28;20037;-69
2022/07/30 16:39:29;;;;;;;2.55;1.20;;;26.80;80.10;;;;;;4167383;28;20037;-69
2022/07/30 16:41:29;;;;;;;1.63;0.98;;;26.80;78.90;;;;;;4166954;28;20021;-69
2022/07/30 16:43:30;;;;;;;1.40;0.75;;;26.80;80.60;;;;;;4170930;28;20037;-69
2022/07/30 16:45:31;;;;;;;1.75;0.65;;;26.90;80.10;;;;;;4146373;28;20054;-69
2022/07/30 16:47:32;;;;;;;3.30;1.17;;;26.90;82.30;;;;;;4163539;28;20115;-69
2022/07/30 16:49:32;;;;;;;1.23;0.90;;;26.90;79.80;;;;;;4168067;28;20036;-69
2022/07/30 16:51:33;;;;;;;1.80;0.95;;;26.90;79.70;;;;;;4159517;28;20033;-69
2022/07/30 16:53:34;;;;;;;1.58;0.90;;;26.80;79.20;;;;;;4168964;28;20026;-69
2022/07/30 16:55:35;;;;;;;6.90;1.35;;;26.80;79.10;;;;;;4160657;28;20030;-69
2022/07/30 16:57:36;;;;;;;1.73;0.88;;;26.80;79.10;;;;;;4173441;28;20033;-70
2022/07/30 16:59:37;;;;;;;2.00;0.88;;;26.80;80.00;;;;;;4149135;28;20071;-70
2022/07/30 17:01:37;;;;;;;2.38;1.20;;;26.80;79.50;;;;;;4150482;28;20449;-70
2022/07/30 17:03:38;;;;;;;2.88;0.80;;;26.70;80.30;;;;;;4161694;28;20036;-69
2022/07/30 17:05:39;;;;;;;2.22;1.05;;;26.70;80.70;;;;;;4160741;28;20087;-69
2022/07/30 17:07:39;;;;;;;2.03;1.13;;;26.60;80.60;;;;;;4177681;28;20029;-69
2022/07/30 17:09:40;;;;;;;1.20;1.10;;;26.60;81.80;;;;;;4177443;28;20033;-69
2022/07/30 17:11:41;;;;;;;2.10;0.82;;;26.60;82.20;;;;;;4173645;28;20037;-69
2022/07/30 17:13:41;;;;;;;3.40;1.38;;;26.60;82.50;;;;;;4169833;28;20087;-69
2022/07/30 17:15:42;;;;;;;2.63;0.90;;;26.60;82.70;;;;;;4155764;28;20037;-70
2022/07/30 17:17:42;;;;;;;1.00;0.88;;;26.60;81.90;;;;;;4163062;28;20524;-69
2022/07/30 17:19:43;;;;;;;3.35;0.93;;;26.60;81.30;;;;;;4153956;28;20569;-69
2022/07/30 17:21:43;;;;;;;1.08;0.73;;;26.60;81.30;;;;;;4169825;28;20051;-69
2022/07/30 17:23:44;;;;;;;1.25;1.08;;;26.70;81.90;;;;;;4180918;28;20033;-69
2022/07/30 17:25:45;;;;;;;2.20;1.10;;;26.60;80.30;;;;;;4179757;28;20037;-69
2022/07/30 17:27:45;;;;;;;2.05;0.85;;;26.60;82.30;;;;;;4178826;28;20037;-69
2022/07/30 17:29:46;;;;;;;1.33;0.90;;;26.60;80.10;;;;;;4174062;28;20119;-69
2022/07/30 17:31:46;;;;;;;1.52;0.98;;;26.60;81.90;;;;;;4179083;28;20112;-69
2022/07/30 17:33:47;;;;;;;2.15;1.00;;;26.60;79.90;;;;;;4166023;28;20112;-69
2022/07/30 17:35:48;;;;;;;1.50;0.98;;;26.60;81.60;;;;;;4166593;28;21227;-69
2022/07/30 17:37:49;;;;;;;1.27;0.85;;;26.60;80.10;;;;;;4161309;28;20368;-70
2022/07/30 17:39:49;;;;;;;2.05;1.13;;;26.60;81.20;;;;;;4169304;28;20030;-70
2022/07/30 17:41:50;;;;;;;3.10;1.13;;;26.60;82.80;;;;;;4169896;28;20029;-69
2022/07/30 17:43:51;;;;;;;1.85;0.90;;;26.60;79.50;;;;;;4169802;28;20022;-70
2022/07/30 17:45:51;;;;;;;2.53;1.10;;;26.60;80.50;;;;;;4169725;28;20053;-70
2022/07/30 17:47:52;;;;;;;2.55;1.00;;;26.60;81.10;;;;;;4167624;28;20029;-69
2022/07/30 17:49:53;;;;;;;2.20;1.10;;;26.60;81.30;;;;;;4171396;28;20064;-69
2022/07/30 17:51:53;;;;;;;4.38;1.15;;;26.60;81.70;;;;;;4164862;28;20026;-70
2022/07/30 17:53:54;;;;;;;3.72;1.13;;;26.60;80.80;;;;;;4165969;28;20037;-69
2022/07/30 17:55:54;;;;;;;1.35;0.73;;;26.50;83.60;;;;;;4169230;28;20618;-69
2022/07/30 17:57:55;;;;;;;1.33;0.93;;;26.60;82.60;;;;;;4169074;28;20115;-69
2022/07/30 17:59:56;;;;;;;2.05;0.85;;;26.50;81.40;;;;;;4174256;28;20070;-70
2022/07/30 18:01:58;;;;;;;3.47;0.98;;;26.60;81.30;;;;;;4166236;28;20030;-70
2022/07/30 18:03:59;;;;;;;1.55;0.80;;;26.60;82.20;;;;;;4167418;28;20030;-70
2022/07/30 18:06:00;;;;;;;1.55;1.10;;;26.60;82.90;;;;;;4173414;28;20043;-69
2022/07/30 18:08:01;;;;;;;1.50;0.90;;;26.60;82.30;;;;;;4181297;28;20099;-69
2022/07/30 18:10:02;;;;;;;1.90;1.00;;;26.60;81.20;;;;;;4181188;28;20029;-71
2022/07/30 18:12:03;;;;;;;1.55;1.30;;;26.60;81.90;;;;;;4185629;28;20025;-69
2022/07/30 18:14:03;;;;;;;1.38;0.90;;;26.60;81.50;;;;;;4185990;28;20029;-69
2022/07/30 18:16:04;;;;;;;2.10;1.05;;;26.60;81.80;;;;;;4181347;28;20379;-69
2022/07/30 18:18:05;;;;;;;2.30;0.90;;;26.60;82.50;;;;;;4181024;28;20033;-69
2022/07/30 18:20:06;;;;;;;2.65;1.02;;;26.60;83.40;;;;;;4181379;28;20029;-69
2022/07/30 18:22:07;;;;;;;1.55;0.90;;;26.60;83.40;;;;;;4184464;28;20388;-69
2022/07/30 18:24:07;;;;;;;1.02;0.80;;;26.60;81.20;;;;;;4182066;28;20037;-69
2022/07/30 18:26:08;;;;;;;1.52;1.00;;;26.60;82.90;;;;;;4186006;28;20040;-68
2022/07/30 18:28:09;;;;;;;1.65;1.02;;;26.60;81.50;;;;;;4182272;28;21314;-67
2022/07/30 18:30:09;;;;;;;2.70;1.40;;;26.60;83.30;;;;;;4174406;28;20045;-68
2022/07/30 18:32:10;;;;;;;1.17;0.80;;;26.60;83.60;;;;;;4182900;28;20472;-68
2022/07/30 18:34:11;;;;;;;1.80;0.93;;;26.60;83.30;;;;;;4182348;28;20440;-67
2022/07/30 18:36:11;;;;;;;1.10;0.75;;;26.60;81.90;;;;;;4185411;28;20063;-67
2022/07/30 18:38:13;;;;;;;4.50;0.98;;;26.60;82.50;;;;;;4186138;28;20053;-68
2022/07/30 18:40:15;;;;;;;1.10;0.88;;;26.60;83.10;;;;;;4184094;28;20056;-68
2022/07/30 18:42:16;;;;;;;2.22;1.13;;;26.60;85.70;;;;;;4183928;28;20119;-68
2022/07/30 18:44:17;;;;;;;2.63;1.13;;;26.60;83.10;;;;;;4178582;28;20033;-68
2022/07/30 18:46:17;;;;;;;1.42;0.93;;;26.60;82.40;;;;;;4179087;28;20045;-68
2022/07/30 18:48:18;;;;;;;1.67;1.02;;;26.50;82.90;;;;;;4183150;28;20055;-68
2022/07/30 18:50:19;;;;;;;1.23;0.73;;;26.50;80.10;;;;;;4178403;28;20025;-68
2022/07/30 18:52:19;;;;;;;2.45;1.13;;;26.50;79.50;;;;;;4177328;28;20480;-68
2022/07/30 18:54:20;;;;;;;1.73;0.85;;;26.50;79.70;;;;;;4185581;28;20458;-68
2022/07/30 18:56:21;;;;;;;0.85;0.70;;;26.50;79.00;;;;;;4185022;28;20040;-67
2022/07/30 18:58:21;;;;;;;5.22;1.20;;;26.50;78.30;;;;;;4182150;28;20035;-67
2022/07/30 19:00:23;;;;;;;1.85;0.93;;;26.50;78.30;;;;;;4184832;28;20124;-67
2022/07/30 19:02:24;;;;;;;1.25;1.10;;;26.50;78.20;;;;;;4186569;28;20114;-68
2022/07/30 19:04:25;;;;;;;1.75;0.90;;;26.50;80.70;;;;;;4186742;28;20066;-68
2022/07/30 19:06:25;;;;;;;1.85;0.85;;;26.40;80.30;;;;;;4186070;28;20043;-67
2022/07/30 19:08:26;;;;;;;1.10;0.95;;;26.50;81.10;;;;;;4187666;28;20044;-68
2022/07/30 19:10:28;;;;;;;4.30;0.88;;;26.40;80.40;;;;;;4176466;28;20033;-67
2022/07/30 19:12:31;;;;;;;0.90;0.70;;;26.40;80.70;;;;;;4177690;28;20112;-67
2022/07/30 19:14:31;;;;;;;5.13;1.58;;;26.40;80.60;;;;;;4161145;28;20026;-67
2022/07/30 19:16:32;;;;;;;2.50;1.10;;;26.40;80.80;;;;;;4170830;28;20063;-67
2022/07/30 19:18:32;;;;;;;1.10;1.00;;;26.40;81.20;;;;;;4175723;28;20044;-67
2022/07/30 19:20:33;;;;;;;1.33;1.00;;;26.40;83.00;;;;;;4181335;28;20064;-67
2022/07/30 19:22:33;;;;;;;1.33;0.90;;;26.40;82.00;;;;;;4186316;28;20521;-67
2022/07/30 19:24:34;;;;;;;0.93;0.82;;;26.40;81.50;;;;;;4185862;28;20067;-67
2022/07/30 19:26:35;;;;;;;1.25;0.82;;;26.30;82.80;;;;;;4182969;28;20029;-67